Time;durP1;ratioP1;P1;durP2;ratioP2;P2;SDS_P1;SDS_P2;PMS_P1;PMS_P2;Temp;Humidity;BMP_temperature;BMP_pressure;BME280_temperature;BME280_humidity;BME280_pressure;Samples;Min_cycle;Max_cycle;Signal;HPM_P1;HPM_P2
2021/03/29 00:07:39;;;;;;;9.43;2.85;;;9.20;99.90;;;;;;6698279;88;20210;-76
2021/03/29 00:17:41;;;;;;;11.10;3.60;;;9.00;99.90;;;;;;6703034;88;20193;-77
2021/03/29 00:27:42;;;;;;;10.63;3.87;;;8.90;99.90;;;;;;6705771;88;20190;-76
2021/03/29 00:37:46;;;;;;;9.35;3.30;;;8.70;99.90;;;;;;6677948;88;20213;-77
2021/03/29 00:47:48;;;;;;;13.02;4.10;;;8.60;99.90;;;;;;6713842;88;21061;-76
2021/03/29 00:57:50;;;;;;;11.52;4.10;;;8.80;99.90;;;;;;6701818;88;20318;-76
2021/03/29 01:07:53;;;;;;;10.65;4.55;;;8.90;99.90;;;;;;6710713;88;20193;-76
2021/03/29 01:17:54;;;;;;;10.68;4.50;;;8.80;99.90;;;;;;6670544;88;20387;-76
2021/03/29 01:28:01;;;;;;;9.38;4.47;;;8.80;99.90;;;;;;6670599;88;20249;-76
2021/03/29 01:38:03;;;;;;;11.43;4.72;;;8.70;99.90;;;;;;6674405;88;20177;-76
2021/03/29 01:48:06;;;;;;;15.57;5.18;;;8.50;99.90;;;;;;6671178;88;20370;-76
2021/03/29 01:58:08;;;;;;;11.40;4.55;;;8.40;99.90;;;;;;6709692;77;20204;-74
2021/03/29 02:08:10;;;;;;;12.30;4.62;;;8.30;99.90;;;;;;6741035;87;20180;-74
2021/03/29 02:18:24;;;;;;;9.73;4.62;;;8.20;99.90;;;;;;6757854;88;20659;-75
2021/03/29 02:28:25;;;;;;;13.70;4.72;;;8.10;99.90;;;;;;6746975;87;20192;-75
2021/03/29 02:38:26;;;;;;;12.75;4.87;;;8.10;99.90;;;;;;6751758;88;20191;-75
2021/03/29 02:48:33;;;;;;;13.82;4.65;;;8.20;99.90;;;;;;6739440;88;20974;-75
2021/03/29 02:58:38;;;;;;;12.68;4.70;;;8.10;99.90;;;;;;6751782;88;20354;-75
2021/03/29 03:08:39;;;;;;;16.45;5.15;;;7.90;99.90;;;;;;6755393;88;20224;-76
2021/03/29 03:18:41;;;;;;;12.52;5.03;;;7.70;99.90;;;;;;6738183;88;20189;-75
2021/03/29 03:28:41;;;;;;;12.07;4.28;;;7.40;99.90;;;;;;6755147;88;20188;-74
2021/03/29 03:38:45;;;;;;;12.93;4.35;;;7.40;99.90;;;;;;6751879;87;20192;-75
2021/03/29 03:48:47;;;;;;;13.82;4.72;;;7.30;99.90;;;;;;6754491;88;20200;-75
2021/03/29 03:58:48;;;;;;;13.40;5.25;;;7.30;99.90;;;;;;6752951;87;20185;-75
2021/03/29 04:08:49;;;;;;;12.27;4.62;;;7.20;99.90;;;;;;6747243;88;20204;-74
2021/03/29 04:18:50;;;;;;;12.73;4.55;;;7.00;99.90;;;;;;6755609;88;20196;-74
2021/03/29 04:28:50;;;;;;;13.50;5.18;;;6.90;99.90;;;;;;6756183;87;20690;-74
2021/03/29 04:38:51;;;;;;;15.93;5.43;;;6.90;99.90;;;;;;6742272;88;20616;-75
2021/03/29 04:48:51;;;;;;;17.10;5.50;;;6.80;99.90;;;;;;6752213;88;20207;-75
2021/03/29 04:58:52;;;;;;;15.00;4.62;;;6.80;99.90;;;;;;6762327;87;20655;-75
2021/03/29 05:08:53;;;;;;;13.77;5.18;;;6.70;99.90;;;;;;6769008;88;20732;-75
2021/03/29 05:18:54;;;;;;;14.43;5.80;;;6.60;99.90;;;;;;6768467;88;20173;-74
2021/03/29 05:28:54;;;;;;;10.73;4.57;;;6.60;99.90;;;;;;6768773;88;20208;-75
2021/03/29 05:38:55;;;;;;;12.77;4.90;;;6.90;99.90;;;;;;6756934;88;20214;-74
2021/03/29 05:48:55;;;;;;;14.27;4.57;;;7.00;99.90;;;;;;6758311;87;20505;-74
2021/03/29 06:09:25;;;;;;;11.80;4.80;;;7.20;99.90;;;;;;6754603;88;20494;-75
2021/03/29 06:19:46;;;;;;;14.23;4.68;;;7.40;99.90;;;;;;6744428;87;20932;-75
2021/03/29 06:29:47;;;;;;;14.43;4.70;;;7.80;99.90;;;;;;6747363;88;20209;-74
2021/03/29 06:39:48;;;;;;;13.80;4.55;;;8.20;99.90;;;;;;6703397;88;20399;-74
2021/03/29 06:49:50;;;;;;;13.32;4.25;;;8.70;99.90;;;;;;6751890;88;20316;-74
2021/03/29 06:59:51;;;;;;;14.10;4.70;;;9.20;99.90;;;;;;6752056;88;20635;-74
2021/03/29 07:09:52;;;;;;;14.52;4.18;;;9.60;99.90;;;;;;6749691;88;20310;-75
2021/03/29 07:19:54;;;;;;;18.17;5.10;;;10.20;99.90;;;;;;6752238;88;20241;-75
2021/03/29 07:29:55;;;;;;;14.73;4.50;;;10.90;99.90;;;;;;6750920;88;20230;-75
2021/03/29 07:39:58;;;;;;;11.57;4.25;;;11.40;99.90;;;;;;6749115;88;20385;-75
2021/03/29 07:49:59;;;;;;;12.02;3.92;;;12.00;99.90;;;;;;6746109;88;20328;-75
2021/03/29 08:00:00;;;;;;;10.75;3.90;;;12.60;99.90;;;;;;6752808;77;20281;-75
2021/03/29 08:10:00;;;;;;;9.55;3.42;;;13.30;99.90;;;;;;6731313;88;20511;-76
2021/03/29 08:20:11;;;;;;;9.43;3.15;;;14.10;99.90;;;;;;6748139;88;20247;-76
2021/03/29 08:30:15;;;;;;;9.50;3.22;;;15.10;98.00;;;;;;6752141;88;20206;-76
2021/03/29 08:40:28;;;;;;;6.53;1.90;;;16.00;95.70;;;;;;6752024;88;20173;-76
2021/03/29 08:50:38;;;;;;;5.32;1.45;;;16.80;92.40;;;;;;6752091;88;20233;-76
2021/03/29 09:00:42;;;;;;;11.70;1.80;;;17.60;88.10;;;;;;6742389;87;20328;-76
2021/03/29 09:10:44;;;;;;;5.43;1.45;;;18.70;82.80;;;;;;6749923;88;20220;-76
2021/03/29 09:20:49;;;;;;;3.55;1.27;;;18.50;77.50;;;;;;6742071;88;20196;-76
2021/03/29 09:30:52;;;;;;;6.82;1.55;;;19.20;74.50;;;;;;6744310;88;20626;-77
2021/03/29 09:40:52;;;;;;;5.28;1.20;;;20.40;69.10;;;;;;6745139;88;20191;-76
2021/03/29 09:50:53;;;;;;;5.47;1.40;;;20.60;67.60;;;;;;6745384;88;20797;-77
2021/03/29 10:00:58;;;;;;;4.23;1.17;;;21.10;65.30;;;;;;6745493;88;20205;-76
2021/03/29 10:11:03;;;;;;;3.30;1.10;;;21.70;59.00;;;;;;6748379;88;20306;-77
2021/03/29 10:21:04;;;;;;;3.47;1.10;;;22.40;54.90;;;;;;6734056;88;20206;-76
2021/03/29 10:31:04;;;;;;;4.15;1.10;;;21.60;53.20;;;;;;6751233;88;20196;-76
2021/03/29 10:41:05;;;;;;;8.38;1.40;;;22.30;48.70;;;;;;6741518;88;20205;-77
2021/03/29 10:51:07;;;;;;;2.97;1.20;;;22.30;47.20;;;;;;6741936;88;20246;-77
2021/03/29 11:01:08;;;;;;;2.72;1.12;;;23.30;47.50;;;;;;6746851;87;20232;-77
2021/03/29 11:11:08;;;;;;;4.05;1.50;;;23.10;44.70;;;;;;6741723;88;20590;-76
2021/03/29 11:21:11;;;;;;;3.10;1.12;;;23.40;42.90;;;;;;6751440;88;20184;-77
2021/03/29 11:31:11;;;;;;;3.53;1.20;;;23.80;41.50;;;;;;6749632;88;20205;-78
2021/03/29 11:41:17;;;;;;;3.15;1.10;;;23.80;41.90;;;;;;6747727;88;20650;-77
2021/03/29 11:51:18;;;;;;;3.33;1.20;;;24.20;41.40;;;;;;6752960;88;20208;-76
2021/03/29 12:01:41;;;;;;;3.50;1.33;;;24.90;40.40;;;;;;6749354;88;20707;-77
2021/03/29 12:22:18;;;;;;;3.03;1.30;;;24.90;39.70;;;;;;6748486;88;20184;-77
2021/03/29 12:32:20;;;;;;;5.18;1.30;;;25.90;39.70;;;;;;6741193;88;20185;-78
2021/03/29 12:42:26;;;;;;;4.12;1.40;;;26.30;39.00;;;;;;6741549;88;20352;-76
2021/03/29 12:52:27;;;;;;;2.50;1.30;;;26.20;38.20;;;;;;6752181;88;20275;-77
2021/03/29 13:02:27;;;;;;;3.22;1.40;;;27.50;37.60;;;;;;6751645;88;20230;-77
2021/03/29 13:12:29;;;;;;;4.20;1.47;;;27.60;36.10;;;;;;6755803;88;20211;-77
2021/03/29 13:22:30;;;;;;;3.83;1.45;;;27.70;36.00;;;;;;6752229;88;20243;-76
2021/03/29 13:32:31;;;;;;;3.78;1.40;;;27.80;35.30;;;;;;6748364;88;20755;-77
2021/03/29 13:42:35;;;;;;;4.30;1.45;;;27.50;35.50;;;;;;6753911;88;20262;-77
2021/03/29 13:52:36;;;;;;;3.85;1.40;;;28.10;36.20;;;;;;6749692;88;20249;-77
2021/03/29 14:02:47;;;;;;;3.28;1.35;;;27.80;36.40;;;;;;6749484;88;20185;-77
2021/03/29 14:12:48;;;;;;;4.22;1.48;;;27.20;35.30;;;;;;6751950;88;20177;-77
2021/03/29 14:22:49;;;;;;;3.87;1.40;;;27.30;35.80;;;;;;6754507;88;20681;-76
2021/03/29 14:32:51;;;;;;;6.22;1.40;;;27.30;35.80;;;;;;6754569;88;20236;-77
2021/03/29 14:42:59;;;;;;;3.67;1.30;;;27.00;35.60;;;;;;6750339;88;20210;-77
2021/03/29 14:53:00;;;;;;;4.55;1.10;;;27.00;35.10;;;;;;6752762;88;20269;-77
2021/03/29 15:03:08;;;;;;;4.75;1.50;;;26.70;35.80;;;;;;6752144;88;20240;-77
2021/03/29 15:13:09;;;;;;;4.03;1.42;;;26.60;35.90;;;;;;6745698;88;20187;-77
2021/03/29 15:23:10;;;;;;;2.83;1.20;;;26.00;35.80;;;;;;6752793;88;20237;-77
2021/03/29 15:33:13;;;;;;;4.32;1.33;;;26.00;35.70;;;;;;6752468;88;20196;-77
2021/03/29 15:43:14;;;;;;;7.07;1.42;;;25.60;35.80;;;;;;6752233;88;20201;-76
2021/03/29 15:53:15;;;;;;;6.20;1.40;;;25.40;36.50;;;;;;6752154;88;20197;-77
2021/03/29 16:03:24;;;;;;;3.42;1.40;;;25.30;37.50;;;;;;6746579;88;20210;-78
2021/03/29 16:13:25;;;;;;;3.85;1.40;;;25.20;37.70;;;;;;6746903;88;20206;-77
2021/03/29 16:23:25;;;;;;;15.37;1.50;;;24.80;37.70;;;;;;6748126;88;20172;-78
2021/03/29 16:33:26;;;;;;;2.65;1.37;;;24.50;38.40;;;;;;6749336;88;20513;-77
2021/03/29 16:43:27;;;;;;;3.20;1.60;;;24.10;38.00;;;;;;6757439;88;20192;-77
2021/03/29 16:53:27;;;;;;;5.47;1.40;;;23.60;39.20;;;;;;6754994;88;20920;-76
2021/03/29 17:03:28;;;;;;;5.10;1.42;;;23.40;40.30;;;;;;6768099;88;20200;-77
2021/03/29 17:13:28;;;;;;;2.80;1.37;;;22.90;40.10;;;;;;6752154;88;20609;-77
2021/03/29 17:23:30;;;;;;;2.28;1.25;;;22.20;41.30;;;;;;6751720;88;20180;-77
2021/03/29 17:33:31;;;;;;;3.60;1.35;;;21.50;42.00;;;;;;6752692;88;20697;-78
2021/03/29 17:43:32;;;;;;;5.32;1.60;;;21.00;43.00;;;;;;6748173;88;20177;-78
2021/03/29 17:53:32;;;;;;;4.07;1.67;;;20.50;43.70;;;;;;6748139;88;20652;-77
2021/03/29 18:03:33;;;;;;;4.43;1.80;;;20.10;45.10;;;;;;6744182;88;20625;-76
2021/03/29 18:13:33;;;;;;;4.95;2.28;;;19.60;46.40;;;;;;6745542;88;20709;-77
2021/03/29 18:23:34;;;;;;;6.05;2.20;;;19.00;48.80;;;;;;6747430;88;20208;-77
2021/03/29 18:33:34;;;;;;;9.00;3.92;;;18.60;51.20;;;;;;6750089;88;20219;-76
2021/03/29 18:43:38;;;;;;;7.45;3.12;;;18.30;52.00;;;;;;6745698;88;20266;-76
2021/03/29 18:53:39;;;;;;;4.75;2.30;;;17.70;52.40;;;;;;6750305;88;20360;-78
2021/03/29 19:03:40;;;;;;;8.15;3.60;;;17.20;54.80;;;;;;6746109;87;20204;-75
2021/03/29 19:13:40;;;;;;;11.60;6.30;;;17.00;54.00;;;;;;6750620;88;20762;-76
2021/03/29 19:23:41;;;;;;;20.27;11.85;;;16.50;57.30;;;;;;6743825;88;20226;-76
2021/03/29 19:33:43;;;;;;;8.13;5.15;;;16.20;57.80;;;;;;6747639;88;20650;-77
2021/03/29 19:43:44;;;;;;;6.70;3.92;;;15.90;58.60;;;;;;6746908;88;20283;-77
2021/03/29 19:53:44;;;;;;;12.70;5.30;;;15.70;58.30;;;;;;6745294;88;20191;-77
2021/03/29 20:03:47;;;;;;;9.15;4.50;;;15.30;59.60;;;;;;6751384;88;20500;-76
2021/03/29 20:13:47;;;;;;;10.45;3.60;;;14.80;60.90;;;;;;6753758;88;20180;-77
2021/03/29 20:23:48;;;;;;;6.85;3.47;;;14.70;60.40;;;;;;6753544;88;20663;-76
2021/03/29 20:33:50;;;;;;;9.10;4.18;;;14.30;62.00;;;;;;6754231;88;20307;-76
2021/03/29 20:43:51;;;;;;;7.82;3.30;;;14.10;62.40;;;;;;6754381;88;20241;-76
2021/03/29 20:53:52;;;;;;;13.20;5.78;;;14.00;63.90;;;;;;6755308;88;20199;-77
2021/03/29 21:03:53;;;;;;;7.93;3.65;;;13.60;65.50;;;;;;6753946;88;20188;-76
2021/03/29 21:13:53;;;;;;;6.80;3.50;;;13.20;66.00;;;;;;6747031;88;20180;-77
2021/03/29 21:23:54;;;;;;;8.45;3.78;;;13.00;67.40;;;;;;6750937;88;20201;-77
2021/03/29 21:33:54;;;;;;;6.97;3.50;;;12.80;68.00;;;;;;6751861;88;20197;-77
2021/03/29 21:43:55;;;;;;;9.20;4.43;;;12.50;69.60;;;;;;6749570;88;20212;-77
2021/03/29 21:53:55;;;;;;;10.27;5.18;;;12.20;71.10;;;;;;6752777;88;20197;-77
2021/03/29 22:03:56;;;;;;;7.62;3.62;;;12.00;72.50;;;;;;6749334;88;20221;-77
2021/03/29 22:13:57;;;;;;;11.95;4.28;;;11.70;74.70;;;;;;6745707;88;20184;-77
2021/03/29 22:23:57;;;;;;;8.18;3.45;;;11.50;78.50;;;;;;6748056;88;20213;-77
2021/03/29 22:34:05;;;;;;;7.30;3.10;;;11.50;81.70;;;;;;6743963;88;20188;-77
2021/03/29 22:44:06;;;;;;;6.57;3.12;;;11.20;87.30;;;;;;6750560;88;20648;-77
2021/03/29 22:54:10;;;;;;;7.75;3.05;;;11.00;90.80;;;;;;6749796;88;20256;-77
2021/03/29 23:04:10;;;;;;;9.05;3.05;;;10.80;92.30;;;;;;6750356;88;20789;-77
2021/03/29 23:14:11;;;;;;;6.55;3.17;;;10.70;93.70;;;;;;6746913;88;20259;-76
2021/03/29 23:24:12;;;;;;;9.87;2.67;;;10.50;95.10;;;;;;6743064;88;20181;-77
2021/03/29 23:34:12;;;;;;;5.90;2.53;;;10.50;95.80;;;;;;6744893;88;20579;-77
2021/03/29 23:44:13;;;;;;;5.70;2.80;;;10.30;96.60;;;;;;6749708;88;20185;-77
2021/03/29 23:54:13;;;;;;;6.43;3.10;;;10.10;98.50;;;;;;6751764;88;20656;-78
